createdAt,value
2023-03-06T00:02:31.205Z,31.21
2023-03-06T00:06:31.309Z,31.20
2023-03-06T00:10:31.345Z,31.25
2023-03-06T00:14:31.414Z,31.25
2023-03-06T00:18:31.391Z,31.16
2023-03-06T00:22:31.386Z,31.24
2023-03-06T00:26:31.428Z,31.11
2023-03-06T00:30:31.524Z,31.11
2023-03-06T00:34:31.587Z,31.07
2023-03-06T00:38:31.690Z,31.04
2023-03-06T00:42:31.690Z,31.01
2023-03-06T00:46:31.756Z,31.05
2023-03-06T00:50:31.833Z,30.99
2023-03-06T00:54:31.769Z,31.06
2023-03-06T00:58:31.827Z,30.87
2023-03-06T01:02:31.893Z,30.94
2023-03-06T01:06:31.727Z,31.05
2023-03-06T01:10:31.699Z,31.00
2023-03-06T01:14:31.696Z,30.92
2023-03-06T01:18:31.645Z,30.99
2023-03-06T01:22:31.640Z,31.01
2023-03-06T01:26:31.602Z,30.97
2023-03-06T01:30:31.588Z,30.90
2023-03-06T01:34:31.550Z,30.84
2023-03-06T01:38:31.529Z,30.80
2023-03-06T01:42:32.235Z,30.90
2023-03-06T01:46:31.524Z,30.91
2023-03-06T01:50:31.512Z,30.82
2023-03-06T01:54:31.500Z,30.86
2023-03-06T01:58:31.470Z,30.73
2023-03-06T02:02:31.440Z,30.80
2023-03-06T02:06:31.412Z,30.71
2023-03-06T02:10:31.367Z,30.76
2023-03-06T02:14:31.348Z,30.70
2023-03-06T02:18:31.334Z,30.68
2023-03-06T02:25:22.781Z,30.69
2023-03-06T02:29:22.753Z,30.71
2023-03-06T02:33:22.685Z,30.59
2023-03-06T02:37:22.654Z,30.74
2023-03-06T02:41:22.625Z,30.68
2023-03-06T02:45:22.609Z,30.71
2023-03-06T02:49:23.482Z,30.68
2023-03-06T02:53:22.491Z,30.61
2023-03-06T02:57:22.481Z,30.63
2023-03-06T03:01:22.467Z,30.56
2023-03-06T03:05:22.383Z,30.60
2023-03-06T03:09:22.329Z,30.53
2023-03-06T03:13:22.321Z,30.55
2023-03-06T03:17:22.310Z,30.53
2023-03-06T03:21:22.266Z,30.56
2023-03-06T03:25:22.212Z,30.60
2023-03-06T03:29:22.160Z,30.58
2023-03-06T03:33:22.149Z,30.59
2023-03-06T03:37:22.073Z,30.49
2023-03-06T03:41:22.063Z,30.55
2023-03-06T03:45:22.008Z,30.51
2023-03-06T03:49:21.980Z,30.54
2023-03-06T03:53:21.943Z,30.55
2023-03-06T03:57:21.913Z,30.55
2023-03-06T04:01:21.872Z,30.62
2023-03-06T04:05:21.940Z,30.59
2023-03-06T04:09:21.906Z,30.51
2023-03-06T04:13:21.918Z,30.63
2023-03-06T04:17:21.905Z,30.47
2023-03-06T04:21:21.940Z,30.40
2023-03-06T04:25:21.926Z,30.38
2023-03-06T04:29:21.955Z,30.46
2023-03-06T04:33:21.988Z,30.44
2023-03-06T04:37:21.988Z,30.47
2023-03-06T04:41:22.023Z,30.39
2023-03-06T04:45:22.045Z,30.49
2023-03-06T04:49:22.040Z,30.46
2023-03-06T04:53:22.053Z,30.42
2023-03-06T04:57:22.079Z,30.37
2023-03-06T05:01:22.152Z,30.40
2023-03-06T05:05:22.082Z,30.49
2023-03-06T05:09:22.110Z,30.45
2023-03-06T05:13:22.099Z,30.58
2023-03-06T05:17:22.105Z,30.60
2023-03-06T05:21:22.132Z,30.59
2023-03-06T05:25:22.160Z,30.63
2023-03-06T05:29:22.174Z,30.61
2023-03-06T05:33:22.182Z,30.64
2023-03-06T05:37:22.192Z,30.62
2023-03-06T05:41:22.250Z,30.66
2023-03-06T05:45:22.294Z,30.62
2023-03-06T05:49:22.303Z,30.55
2023-03-06T05:53:22.344Z,30.60
2023-03-06T05:57:22.364Z,31.23
2023-03-06T06:01:22.348Z,32.85
2023-03-06T06:05:22.385Z,33.80
2023-03-06T06:09:22.426Z,35.38
2023-03-06T06:13:22.356Z,36.36
2023-03-06T06:17:22.372Z,37.50
2023-03-06T06:21:22.347Z,38.54
2023-03-06T06:25:22.352Z,39.84
2023-03-06T06:29:22.306Z,40.69
2023-03-06T06:33:22.282Z,41.13
2023-03-06T06:37:22.292Z,41.54
2023-03-06T06:45:23.234Z,40.83
2023-03-06T06:49:22.598Z,40.13
2023-03-06T06:53:22.588Z,40.20
2023-03-06T06:57:22.611Z,38.56
2023-03-06T07:01:22.738Z,40.74
2023-03-06T07:05:23.084Z,42.22
2023-03-06T07:09:23.135Z,43.39
2023-03-06T07:13:23.073Z,44.18
2023-03-06T07:17:23.071Z,44.84
2023-03-06T07:21:23.037Z,45.36
2023-03-06T07:25:23.034Z,46.18
2023-03-06T07:29:23.116Z,46.90
2023-03-06T07:33:22.931Z,46.95
2023-03-06T07:37:23.090Z,47.84
2023-03-06T07:41:22.886Z,47.88
2023-03-06T07:45:23.089Z,48.20
2023-03-06T07:49:22.780Z,48.22
2023-03-06T07:53:23.087Z,48.29
2023-03-06T07:57:23.116Z,48.47
2023-03-06T08:01:22.655Z,49.06
2023-03-06T08:05:22.619Z,49.17
2023-03-06T08:09:22.611Z,49.63
2023-03-06T08:13:22.623Z,49.73
2023-03-06T08:17:22.551Z,49.00
2023-03-06T08:21:22.484Z,49.47
2023-03-06T08:25:22.614Z,49.80
2023-03-06T08:29:22.424Z,50.47
2023-03-06T08:33:22.389Z,50.88
2023-03-06T08:37:22.442Z,51.03
2023-03-06T08:41:22.641Z,50.91
2023-03-06T08:45:22.646Z,50.91
2023-03-06T08:49:23.160Z,50.04
2023-03-06T08:53:30.440Z,44.09
2023-03-06T08:57:23.448Z,43.44
2023-03-06T09:01:22.632Z,44.73
2023-03-06T09:05:22.381Z,45.73
2023-03-06T09:09:22.485Z,46.05
2023-03-06T09:13:22.546Z,46.68
2023-03-06T09:17:22.712Z,47.19
2023-03-06T09:21:23.148Z,47.43
2023-03-06T09:25:22.963Z,47.76
2023-03-06T09:29:22.985Z,48.18
2023-03-06T09:33:23.030Z,48.69
2023-03-06T09:37:23.133Z,49.05
2023-03-06T09:41:23.678Z,49.01
2023-03-06T09:45:23.262Z,50.20
2023-03-06T09:49:23.650Z,50.50
2023-03-06T09:53:23.629Z,50.82
2023-03-06T09:57:23.641Z,51.31
2023-03-06T10:01:23.335Z,51.45
2023-03-06T10:05:23.364Z,50.32
2023-03-06T10:09:23.669Z,50.67
2023-03-06T10:13:23.347Z,51.23
2023-03-06T10:17:23.333Z,51.76
2023-03-06T10:21:23.684Z,52.17
2023-03-06T10:25:23.315Z,52.75
2023-03-06T10:29:23.659Z,52.97
2023-03-06T10:33:23.275Z,53.14
2023-03-06T10:37:23.214Z,53.47
2023-03-06T10:41:23.702Z,53.60
2023-03-06T10:45:23.733Z,53.99
2023-03-06T10:49:23.686Z,53.57
2023-03-06T10:53:23.701Z,53.98
2023-03-06T10:57:23.691Z,54.25
2023-03-06T11:01:23.786Z,54.29
2023-03-06T11:05:23.589Z,54.39
2023-03-06T11:09:23.589Z,54.47
2023-03-06T11:13:23.545Z,54.40
2023-03-06T11:17:23.511Z,54.43
2023-03-06T11:21:23.686Z,54.38
2023-03-06T11:25:23.432Z,54.50
2023-03-06T11:29:23.460Z,54.55
2023-03-06T11:33:23.352Z,54.86
2023-03-06T11:37:23.677Z,55.25
2023-03-06T11:41:23.740Z,54.71
2023-03-06T11:45:24.186Z,54.05
2023-03-06T11:49:24.139Z,53.48
2023-03-06T11:53:24.122Z,52.62
2023-03-06T11:57:24.061Z,51.53
2023-03-06T12:01:24.048Z,50.21
2023-03-06T12:05:24.163Z,49.35
2023-03-06T12:09:23.953Z,48.46
2023-03-06T12:17:24.221Z,45.70
2023-03-06T12:21:23.933Z,45.05
2023-03-06T12:25:23.838Z,45.00
2023-03-06T12:29:24.220Z,44.70
2023-03-06T12:33:23.749Z,44.51
2023-03-06T12:37:24.225Z,43.94
2023-03-06T12:41:23.705Z,42.57
2023-03-06T12:45:23.655Z,41.93
2023-03-06T12:49:32.019Z,43.31
2023-03-06T12:53:24.572Z,44.12
2023-03-06T12:57:23.524Z,45.21
2023-03-06T13:01:23.562Z,44.01
2023-03-06T13:05:23.472Z,44.51
2023-03-06T13:09:23.434Z,44.18
2023-03-06T13:13:23.407Z,44.22
2023-03-06T13:17:23.753Z,43.83
2023-03-06T13:21:23.306Z,42.77
2023-03-06T13:25:23.380Z,39.97
2023-03-06T13:29:23.279Z,38.62
2023-03-06T13:33:23.248Z,38.72
2023-03-06T13:37:23.302Z,38.25
2023-03-06T13:41:23.276Z,37.05
2023-03-06T13:45:23.362Z,36.44
2023-03-06T13:49:23.453Z,36.79
2023-03-06T13:53:23.607Z,36.70
2023-03-06T13:57:23.758Z,36.19
2023-03-06T14:01:23.945Z,36.44
2023-03-06T14:05:24.027Z,36.10
2023-03-06T14:09:24.198Z,35.73
2023-03-06T14:13:25.529Z,35.33
2023-03-06T14:17:24.525Z,35.76
2023-03-06T14:21:24.760Z,36.04
2023-03-06T14:25:24.956Z,35.52
2023-03-06T14:29:24.956Z,35.66
2023-03-06T14:33:24.881Z,35.38
2023-03-06T14:37:24.856Z,35.08
2023-03-06T14:41:24.841Z,34.79
2023-03-06T14:45:24.871Z,34.41
2023-03-06T14:49:24.724Z,34.55
2023-03-06T14:53:24.704Z,34.69
2023-03-06T14:57:24.653Z,35.08
2023-03-06T15:01:24.691Z,34.64
2023-03-06T15:05:24.600Z,34.39
2023-03-06T15:09:24.774Z,34.78
2023-03-06T15:13:24.500Z,34.95
2023-03-06T15:17:24.515Z,35.27
2023-03-06T15:21:26.409Z,35.65
2023-03-06T15:25:24.379Z,36.07
2023-03-06T15:29:24.389Z,36.91
2023-03-06T15:33:24.317Z,36.51
2023-03-06T15:37:24.303Z,36.76
2023-03-06T15:41:24.248Z,35.70
2023-03-06T15:45:24.250Z,35.61
2023-03-06T15:49:24.143Z,34.88
2023-03-06T15:53:24.111Z,35.04
2023-03-06T15:57:24.208Z,34.93
2023-03-06T16:01:24.325Z,34.36
2023-03-06T16:05:24.410Z,33.98
2023-03-06T16:09:24.504Z,33.80
2023-03-06T16:13:24.606Z,33.58
2023-03-06T16:17:24.699Z,33.12
2023-03-06T16:21:24.793Z,33.48
2023-03-06T16:25:24.912Z,33.83
2023-03-06T16:29:25.070Z,33.83
2023-03-06T16:33:25.222Z,33.87
2023-03-06T16:37:25.431Z,33.81
2023-03-06T16:41:25.596Z,33.93
2023-03-06T16:45:25.755Z,33.88
2023-03-06T16:49:25.977Z,33.44
2023-03-06T16:53:26.165Z,33.38
2023-03-06T16:57:26.328Z,33.07
2023-03-06T17:01:26.854Z,33.31
2023-03-06T17:05:26.706Z,33.06
2023-03-06T17:09:26.925Z,33.06
2023-03-06T17:13:26.861Z,32.86
2023-03-06T17:17:26.848Z,32.62
2023-03-06T17:21:26.799Z,33.01
2023-03-06T17:25:26.777Z,32.84
2023-03-06T17:29:26.720Z,32.77
2023-03-06T17:33:26.717Z,33.02
2023-03-06T17:37:26.703Z,32.70
2023-03-06T17:41:26.653Z,32.15
2023-03-06T17:45:26.570Z,32.58
2023-03-06T17:49:26.561Z,32.29
2023-03-06T17:53:26.491Z,31.78
2023-03-06T17:57:26.568Z,31.42
2023-03-06T18:01:26.430Z,31.32
2023-03-06T18:05:26.428Z,30.18
2023-03-06T18:09:26.458Z,29.61
2023-03-06T18:13:26.476Z,28.69
2023-03-06T18:17:26.507Z,27.97
2023-03-06T18:21:26.570Z,27.46
2023-03-06T18:25:26.616Z,27.16
2023-03-06T18:29:26.698Z,26.74
2023-03-06T18:33:26.780Z,26.54
2023-03-06T18:37:26.877Z,26.34
2023-03-06T18:41:26.971Z,26.21
2023-03-06T18:45:27.137Z,26.07
2023-03-06T18:49:27.274Z,26.00
2023-03-06T18:53:27.393Z,25.86
2023-03-06T18:57:30.138Z,25.83
2023-03-06T19:01:27.590Z,25.71
2023-03-06T19:05:27.516Z,25.71
2023-03-06T19:09:27.487Z,25.67
2023-03-06T19:13:27.445Z,25.58
2023-03-06T19:17:27.421Z,25.46
2023-03-06T19:21:27.398Z,25.39
2023-03-06T19:25:27.364Z,25.30
2023-03-06T19:29:27.293Z,25.38
2023-03-06T19:33:27.281Z,25.29
2023-03-06T19:37:27.212Z,25.30
2023-03-06T19:41:27.408Z,25.26
2023-03-06T19:45:27.345Z,25.21
2023-03-06T19:49:27.354Z,25.24
2023-03-06T19:53:27.291Z,25.13
2023-03-06T19:57:27.281Z,25.08
2023-03-06T20:01:27.266Z,25.10
2023-03-06T20:05:27.219Z,25.09
2023-03-06T20:09:27.170Z,25.05
2023-03-06T20:13:27.112Z,25.02
2023-03-06T20:17:27.098Z,25.06
2023-03-06T20:21:27.070Z,24.98
2023-03-06T20:25:26.985Z,24.98
2023-03-06T20:29:28.423Z,24.94
2023-03-06T20:33:26.933Z,24.92
2023-03-06T20:37:26.871Z,24.91
2023-03-06T20:41:26.855Z,24.89
2023-03-06T20:45:26.792Z,24.92
2023-03-06T20:49:27.370Z,24.90
2023-03-06T20:53:26.706Z,24.91
2023-03-06T20:57:26.712Z,24.89
2023-03-06T21:01:26.711Z,24.95
2023-03-06T21:05:26.596Z,24.94
2023-03-06T21:09:26.589Z,24.95
2023-03-06T21:13:26.554Z,24.97
2023-03-06T21:17:26.504Z,24.97
2023-03-06T21:21:26.466Z,24.96
2023-03-06T21:25:26.411Z,25.00
2023-03-06T21:29:26.488Z,24.96
2023-03-06T21:33:26.640Z,24.93
2023-03-06T21:37:26.635Z,24.93
2023-03-06T21:41:26.725Z,24.89
2023-03-06T21:45:28.041Z,24.90
2023-03-06T21:49:26.875Z,25.05
2023-03-06T21:53:26.962Z,25.17
2023-03-06T21:57:27.046Z,25.23
2023-03-06T22:01:27.166Z,25.22
2023-03-06T22:05:27.211Z,25.30
2023-03-06T22:09:27.324Z,25.35
2023-03-06T22:13:27.459Z,25.43
2023-03-06T22:17:27.587Z,25.48
2023-03-06T22:21:27.719Z,25.51
2023-03-06T22:25:27.830Z,25.50
2023-03-06T22:29:28.015Z,25.57
2023-03-06T22:33:28.150Z,25.63
2023-03-06T22:37:28.345Z,25.68
2023-03-06T22:41:28.541Z,25.68
2023-03-06T22:45:28.744Z,25.77
2023-03-06T22:49:28.922Z,25.81
2023-03-06T22:53:29.102Z,25.88
2023-03-06T22:57:29.379Z,26.01
2023-03-06T23:01:29.653Z,26.14
2023-03-06T23:05:29.802Z,26.25
2023-03-06T23:09:29.747Z,26.19
2023-03-06T23:13:29.696Z,26.16
2023-03-06T23:17:29.688Z,26.19
2023-03-06T23:21:29.647Z,26.20
2023-03-06T23:25:29.595Z,26.19
2023-03-06T23:29:29.573Z,26.23
2023-03-06T23:33:29.524Z,26.28
2023-03-06T23:37:29.485Z,26.30
2023-03-06T23:41:29.394Z,26.33
2023-03-06T23:45:29.378Z,26.43
2023-03-06T23:49:29.458Z,26.43
2023-03-06T23:53:29.446Z,26.47
2023-03-06T23:57:29.427Z,26.52
